sensor_id;sensor_type;location;lat;lon;timestamp;P1;durP1;ratioP1;P2;durP2;ratioP2
52396;SDS011;38322;53.108;6.308;2023-12-22T06:03:24;18.67;;;4.43;;
52396;SDS011;38322;53.108;6.308;2023-12-22T06:05:50;16.85;;;3.28;;
52396;SDS011;38322;53.108;6.308;2023-12-22T06:08:16;21.30;;;3.78;;
52396;SDS011;38322;53.108;6.308;2023-12-22T06:10:42;15.82;;;2.97;;
52396;SDS011;38322;53.108;6.308;2023-12-22T06:13:08;11.70;;;3.67;;
52396;SDS011;38322;53.108;6.308;2023-12-22T06:15:33;18.33;;;4.15;;
52396;SDS011;38322;53.108;6.308;2023-12-22T06:17:59;11.65;;;3.00;;
52396;SDS011;38322;53.108;6.308;2023-12-22T06:20:25;17.98;;;3.60;;
52396;SDS011;38322;53.108;6.308;2023-12-22T06:22:51;16.38;;;4.43;;
52396;SDS011;38322;53.108;6.308;2023-12-22T06:25:17;21.33;;;3.90;;
52396;SDS011;38322;53.108;6.308;2023-12-22T06:27:45;19.45;;;4.28;;
52396;SDS011;38322;53.108;6.308;2023-12-22T06:30:11;11.40;;;2.95;;
52396;SDS011;38322;53.108;6.308;2023-12-22T06:32:37;21.67;;;4.65;;
52396;SDS011;38322;53.108;6.308;2023-12-22T06:35:05;19.10;;;5.07;;
52396;SDS011;38322;53.108;6.308;2023-12-22T06:37:31;20.60;;;4.43;;
52396;SDS011;38322;53.108;6.308;2023-12-22T06:39:56;21.70;;;3.10;;
52396;SDS011;38322;53.108;6.308;2023-12-22T06:42:23;18.27;;;4.20;;
52396;SDS011;38322;53.108;6.308;2023-12-22T06:44:49;13.45;;;4.75;;
52396;SDS011;38322;53.108;6.308;2023-12-22T06:47:14;14.82;;;4.00;;
52396;SDS011;38322;53.108;6.308;2023-12-22T06:49:40;15.00;;;3.05;;
52396;SDS011;38322;53.108;6.308;2023-12-22T06:52:06;19.17;;;3.10;;
52396;SDS011;38322;53.108;6.308;2023-12-22T06:54:32;19.15;;;5.30;;
52396;SDS011;38322;53.108;6.308;2023-12-22T06:56:59;18.17;;;3.30;;
52396;SDS011;38322;53.108;6.308;2023-12-22T06:59:25;13.98;;;2.42;;
52396;SDS011;38322;53.108;6.308;2023-12-22T07:01:51;20.90;;;3.85;;
52396;SDS011;38322;53.108;6.308;2023-12-22T07:04:17;18.08;;;2.60;;
52396;SDS011;38322;53.108;6.308;2023-12-22T07:06:43;13.43;;;3.58;;
52396;SDS011;38322;53.108;6.308;2023-12-22T07:11:48;17.90;;;3.10;;
52396;SDS011;38322;53.108;6.308;2023-12-22T07:14:21;23.73;;;3.33;;
52396;SDS011;38322;53.108;6.308;2023-12-22T07:16:47;16.40;;;3.63;;
52396;SDS011;38322;53.108;6.308;2023-12-22T07:19:13;14.32;;;2.70;;
52396;SDS011;38322;53.108;6.308;2023-12-22T07:21:39;15.63;;;3.03;;
52396;SDS011;38322;53.108;6.308;2023-12-22T07:24:06;19.23;;;3.28;;
52396;SDS011;38322;53.108;6.308;2023-12-22T07:26:32;14.23;;;3.58;;
52396;SDS011;38322;53.108;6.308;2023-12-22T07:28:58;13.63;;;3.25;;
52396;SDS011;38322;53.108;6.308;2023-12-22T07:31:24;18.80;;;2.85;;
52396;SDS011;38322;53.108;6.308;2023-12-22T07:33:50;13.65;;;2.25;;
52396;SDS011;38322;53.108;6.308;2023-12-22T07:36:17;16.02;;;3.38;;
52396;SDS011;38322;53.108;6.308;2023-12-22T07:38:46;18.70;;;3.17;;
52396;SDS011;38322;53.108;6.308;2023-12-22T07:41:12;21.85;;;3.88;;
52396;SDS011;38322;53.108;6.308;2023-12-22T07:43:38;16.05;;;2.92;;
52396;SDS011;38322;53.108;6.308;2023-12-22T07:46:04;18.65;;;2.17;;
52396;SDS011;38322;53.108;6.308;2023-12-22T07:48:30;16.65;;;3.92;;
52396;SDS011;38322;53.108;6.308;2023-12-22T07:50:55;11.88;;;2.60;;
52396;SDS011;38322;53.108;6.308;2023-12-22T07:53:21;31.15;;;4.20;;
52396;SDS011;38322;53.108;6.308;2023-12-22T07:55:47;18.50;;;3.72;;
52396;SDS011;38322;53.108;6.308;2023-12-22T07:58:13;16.15;;;2.72;;
52396;SDS011;38322;53.108;6.308;2023-12-22T08:00:39;21.60;;;3.50;;
52396;SDS011;38322;53.108;6.308;2023-12-22T08:03:05;21.45;;;4.25;;
52396;SDS011;38322;53.108;6.308;2023-12-22T08:05:31;21.27;;;3.72;;
52396;SDS011;38322;53.108;6.308;2023-12-22T08:07:58;21.83;;;2.80;;
52396;SDS011;38322;53.108;6.308;2023-12-22T08:10:24;18.20;;;3.55;;
52396;SDS011;38322;53.108;6.308;2023-12-22T08:12:50;26.73;;;5.20;;
52396;SDS011;38322;53.108;6.308;2023-12-22T08:15:15;14.85;;;4.38;;
52396;SDS011;38322;53.108;6.308;2023-12-22T08:17:50;14.85;;;2.60;;
52396;SDS011;38322;53.108;6.308;2023-12-22T08:20:20;24.02;;;4.28;;
52396;SDS011;38322;53.108;6.308;2023-12-22T08:22:46;14.52;;;3.40;;
52396;SDS011;38322;53.108;6.308;2023-12-22T08:25:13;23.48;;;5.65;;
52396;SDS011;38322;53.108;6.308;2023-12-22T08:27:40;14.63;;;2.25;;
52396;SDS011;38322;53.108;6.308;2023-12-22T08:30:07;12.45;;;2.60;;
52396;SDS011;38322;53.108;6.308;2023-12-22T08:32:34;12.82;;;1.80;;
52396;SDS011;38322;53.108;6.308;2023-12-22T08:35:00;13.73;;;2.53;;
52396;SDS011;38322;53.108;6.308;2023-12-22T08:37:25;17.17;;;1.63;;
52396;SDS011;38322;53.108;6.308;2023-12-22T08:39:51;8.23;;;1.58;;
52396;SDS011;38322;53.108;6.308;2023-12-22T08:42:17;9.10;;;1.30;;
52396;SDS011;38322;53.108;6.308;2023-12-22T08:44:43;7.72;;;1.42;;
52396;SDS011;38322;53.108;6.308;2023-12-22T08:47:09;10.18;;;2.38;;
52396;SDS011;38322;53.108;6.308;2023-12-22T08:49:35;7.57;;;1.15;;
52396;SDS011;38322;53.108;6.308;2023-12-22T08:52:01;12.00;;;1.27;;
52396;SDS011;38322;53.108;6.308;2023-12-22T08:54:29;9.57;;;1.10;;
52396;SDS011;38322;53.108;6.308;2023-12-22T08:56:55;9.68;;;1.20;;
52396;SDS011;38322;53.108;6.308;2023-12-22T08:59:21;8.02;;;0.80;;
52396;SDS011;38322;53.108;6.308;2023-12-22T09:01:47;9.10;;;1.25;;
52396;SDS011;38322;53.108;6.308;2023-12-22T09:04:13;13.10;;;1.25;;
52396;SDS011;38322;53.108;6.308;2023-12-22T09:06:40;5.53;;;1.70;;
52396;SDS011;38322;53.108;6.308;2023-12-22T09:09:05;3.55;;;1.00;;
52396;SDS011;38322;53.108;6.308;2023-12-22T09:11:34;11.13;;;1.88;;
52396;SDS011;38322;53.108;6.308;2023-12-22T09:14:00;4.22;;;0.52;;
52396;SDS011;38322;53.108;6.308;2023-12-22T09:16:26;9.52;;;0.98;;
52396;SDS011;38322;53.108;6.308;2023-12-22T09:18:52;14.20;;;2.03;;
52396;SDS011;38322;53.108;6.308;2023-12-22T09:21:18;20.23;;;1.80;;
52396;SDS011;38322;53.108;6.308;2023-12-22T09:23:44;14.57;;;2.22;;
52396;SDS011;38322;53.108;6.308;2023-12-22T09:26:14;11.07;;;1.73;;
52396;SDS011;38322;53.108;6.308;2023-12-22T09:28:41;11.15;;;1.92;;
52396;SDS011;38322;53.108;6.308;2023-12-22T09:31:07;14.00;;;1.90;;
52396;SDS011;38322;53.108;6.308;2023-12-22T09:33:34;18.30;;;2.50;;
52396;SDS011;38322;53.108;6.308;2023-12-22T09:36:00;16.30;;;3.50;;
52396;SDS011;38322;53.108;6.308;2023-12-22T09:38:26;11.27;;;1.58;;
52396;SDS011;38322;53.108;6.308;2023-12-22T09:40:53;13.23;;;2.75;;
52396;SDS011;38322;53.108;6.308;2023-12-22T09:43:19;20.60;;;1.65;;
52396;SDS011;38322;53.108;6.308;2023-12-22T09:45:45;10.68;;;3.10;;
52396;SDS011;38322;53.108;6.308;2023-12-22T09:48:12;11.95;;;2.88;;
52396;SDS011;38322;53.108;6.308;2023-12-22T09:50:43;11.35;;;2.47;;
52396;SDS011;38322;53.108;6.308;2023-12-22T09:53:13;14.77;;;2.47;;
52396;SDS011;38322;53.108;6.308;2023-12-22T09:55:42;9.90;;;2.30;;
52396;SDS011;38322;53.108;6.308;2023-12-22T09:58:11;10.48;;;2.63;;
52396;SDS011;38322;53.108;6.308;2023-12-22T10:00:39;16.27;;;2.55;;
52396;SDS011;38322;53.108;6.308;2023-12-22T10:03:06;6.10;;;1.52;;
52396;SDS011;38322;53.108;6.308;2023-12-22T10:05:35;10.32;;;3.08;;
52396;SDS011;38322;53.108;6.308;2023-12-22T10:08:02;11.38;;;3.28;;
52396;SDS011;38322;53.108;6.308;2023-12-22T10:10:29;12.50;;;2.50;;
52396;SDS011;38322;53.108;6.308;2023-12-22T10:12:59;7.32;;;1.27;;
52396;SDS011;38322;53.108;6.308;2023-12-22T10:15:25;11.35;;;2.78;;
52396;SDS011;38322;53.108;6.308;2023-12-22T10:17:52;14.75;;;2.10;;
52396;SDS011;38322;53.108;6.308;2023-12-22T10:20:21;17.40;;;2.15;;
52396;SDS011;38322;53.108;6.308;2023-12-22T10:22:47;14.80;;;3.28;;
52396;SDS011;38322;53.108;6.308;2023-12-22T10:25:19;14.93;;;2.28;;
52396;SDS011;38322;53.108;6.308;2023-12-22T10:27:46;14.55;;;2.13;;
52396;SDS011;38322;53.108;6.308;2023-12-22T10:30:12;15.88;;;2.75;;
52396;SDS011;38322;53.108;6.308;2023-12-22T10:32:40;15.00;;;2.58;;
52396;SDS011;38322;53.108;6.308;2023-12-22T10:35:09;15.10;;;2.60;;
52396;SDS011;38322;53.108;6.308;2023-12-22T10:37:35;13.70;;;2.70;;
52396;SDS011;38322;53.108;6.308;2023-12-22T10:40:04;9.43;;;1.80;;
52396;SDS011;38322;53.108;6.308;2023-12-22T10:42:33;14.48;;;3.28;;
52396;SDS011;38322;53.108;6.308;2023-12-22T10:45:00;13.52;;;2.53;;
52396;SDS011;38322;53.108;6.308;2023-12-22T10:47:27;14.90;;;3.95;;
52396;SDS011;38322;53.108;6.308;2023-12-22T10:49:53;13.00;;;1.95;;
52396;SDS011;38322;53.108;6.308;2023-12-22T10:52:19;15.07;;;3.67;;
52396;SDS011;38322;53.108;6.308;2023-12-22T10:54:48;16.40;;;3.13;;
52396;SDS011;38322;53.108;6.308;2023-12-22T10:57:17;17.73;;;2.58;;
52396;SDS011;38322;53.108;6.308;2023-12-22T10:59:45;13.52;;;2.80;;
52396;SDS011;38322;53.108;6.308;2023-12-22T11:02:18;11.73;;;2.90;;
52396;SDS011;38322;53.108;6.308;2023-12-22T11:04:47;13.00;;;2.63;;
52396;SDS011;38322;53.108;6.308;2023-12-22T11:07:25;15.55;;;2.05;;
52396;SDS011;38322;53.108;6.308;2023-12-22T11:09:53;19.63;;;3.05;;
52396;SDS011;38322;53.108;6.308;2023-12-22T11:12:23;9.52;;;2.55;;
52396;SDS011;38322;53.108;6.308;2023-12-22T11:14:50;12.02;;;2.67;;
52396;SDS011;38322;53.108;6.308;2023-12-22T11:17:21;11.07;;;2.45;;
52396;SDS011;38322;53.108;6.308;2023-12-22T11:19:53;18.63;;;2.75;;
52396;SDS011;38322;53.108;6.308;2023-12-22T11:22:19;13.55;;;1.77;;
52396;SDS011;38322;53.108;6.308;2023-12-22T11:24:47;16.38;;;2.25;;
52396;SDS011;38322;53.108;6.308;2023-12-22T11:27:17;9.32;;;2.03;;
52396;SDS011;38322;53.108;6.308;2023-12-22T11:29:47;11.93;;;2.75;;
52396;SDS011;38322;53.108;6.308;2023-12-22T11:32:15;17.50;;;4.03;;
52396;SDS011;38322;53.108;6.308;2023-12-22T11:34:45;15.30;;;3.00;;
52396;SDS011;38322;53.108;6.308;2023-12-22T11:37:13;11.63;;;2.03;;
52396;SDS011;38322;53.108;6.308;2023-12-22T11:39:40;16.15;;;2.95;;
52396;SDS011;38322;53.108;6.308;2023-12-22T11:42:11;15.30;;;1.60;;
52396;SDS011;38322;53.108;6.308;2023-12-22T11:44:41;13.02;;;1.90;;
52396;SDS011;38322;53.108;6.308;2023-12-22T11:47:08;15.73;;;2.10;;
52396;SDS011;38322;53.108;6.308;2023-12-22T11:49:35;8.23;;;2.28;;
52396;SDS011;38322;53.108;6.308;2023-12-22T11:52:15;16.95;;;2.55;;
52396;SDS011;38322;53.108;6.308;2023-12-22T11:59:56;13.48;;;2.35;;
52396;SDS011;38322;53.108;6.308;2023-12-22T12:02:32;11.23;;;2.67;;
52396;SDS011;38322;53.108;6.308;2023-12-22T12:05:01;20.17;;;2.42;;
52396;SDS011;38322;53.108;6.308;2023-12-22T12:07:44;9.50;;;2.05;;
52396;SDS011;38322;53.108;6.308;2023-12-22T12:13:05;15.90;;;2.65;;
52396;SDS011;38322;53.108;6.308;2023-12-22T12:15:35;15.68;;;2.28;;
52396;SDS011;38322;53.108;6.308;2023-12-22T12:18:02;9.82;;;1.63;;
52396;SDS011;38322;53.108;6.308;2023-12-22T12:20:29;11.13;;;1.35;;
52396;SDS011;38322;53.108;6.308;2023-12-22T12:22:55;13.45;;;1.65;;
52396;SDS011;38322;53.108;6.308;2023-12-22T12:25:22;9.27;;;1.88;;
52396;SDS011;38322;53.108;6.308;2023-12-22T12:28:03;19.35;;;3.10;;
52396;SDS011;38322;53.108;6.308;2023-12-22T12:30:31;10.55;;;2.50;;
52396;SDS011;38322;53.108;6.308;2023-12-22T12:33:07;17.85;;;2.40;;
52396;SDS011;38322;53.108;6.308;2023-12-22T12:35:34;20.00;;;2.22;;
52396;SDS011;38322;53.108;6.308;2023-12-22T12:38:00;11.70;;;1.98;;
52396;SDS011;38322;53.108;6.308;2023-12-22T12:40:28;12.52;;;2.20;;
52396;SDS011;38322;53.108;6.308;2023-12-22T12:42:55;15.48;;;2.03;;
52396;SDS011;38322;53.108;6.308;2023-12-22T12:45:22;7.13;;;1.63;;
52396;SDS011;38322;53.108;6.308;2023-12-22T12:48:01;11.13;;;2.00;;
52396;SDS011;38322;53.108;6.308;2023-12-22T12:50:28;11.50;;;1.45;;
52396;SDS011;38322;53.108;6.308;2023-12-22T12:52:56;10.02;;;1.38;;
52396;SDS011;38322;53.108;6.308;2023-12-22T12:55:23;14.77;;;2.00;;
52396;SDS011;38322;53.108;6.308;2023-12-22T12:57:50;10.43;;;2.20;;
52396;SDS011;38322;53.108;6.308;2023-12-22T13:00:30;8.15;;;1.15;;
52396;SDS011;38322;53.108;6.308;2023-12-22T13:03:00;14.07;;;1.88;;
52396;SDS011;38322;53.108;6.308;2023-12-22T13:05:30;9.23;;;1.20;;
52396;SDS011;38322;53.108;6.308;2023-12-22T13:08:11;8.40;;;1.10;;
52396;SDS011;38322;53.108;6.308;2023-12-22T13:10:38;9.32;;;1.50;;
52396;SDS011;38322;53.108;6.308;2023-12-22T13:13:05;8.02;;;2.35;;
52396;SDS011;38322;53.108;6.308;2023-12-22T13:15:31;8.00;;;1.60;;
52396;SDS011;38322;53.108;6.308;2023-12-22T13:17:57;15.40;;;1.90;;
52396;SDS011;38322;53.108;6.308;2023-12-22T13:20:23;9.75;;;1.02;;
52396;SDS011;38322;53.108;6.308;2023-12-22T13:22:49;9.38;;;1.23;;
52396;SDS011;38322;53.108;6.308;2023-12-22T13:25:15;10.75;;;1.77;;
52396;SDS011;38322;53.108;6.308;2023-12-22T13:30:12;9.90;;;1.05;;
52396;SDS011;38322;53.108;6.308;2023-12-22T13:32:40;8.20;;;1.42;;
52396;SDS011;38322;53.108;6.308;2023-12-22T13:35:06;15.10;;;1.58;;
52396;SDS011;38322;53.108;6.308;2023-12-22T13:37:32;5.65;;;0.88;;
52396;SDS011;38322;53.108;6.308;2023-12-22T13:39:58;4.40;;;1.50;;
52396;SDS011;38322;53.108;6.308;2023-12-22T13:42:25;9.23;;;2.10;;
52396;SDS011;38322;53.108;6.308;2023-12-22T13:44:51;12.00;;;2.50;;
52396;SDS011;38322;53.108;6.308;2023-12-22T13:47:20;12.27;;;2.83;;
52396;SDS011;38322;53.108;6.308;2023-12-22T13:49:48;12.43;;;1.42;;
52396;SDS011;38322;53.108;6.308;2023-12-22T13:52:27;8.23;;;1.38;;
52396;SDS011;38322;53.108;6.308;2023-12-22T13:55:00;8.07;;;1.40;;
52396;SDS011;38322;53.108;6.308;2023-12-22T13:57:27;14.13;;;1.60;;
52396;SDS011;38322;53.108;6.308;2023-12-22T13:59:54;8.32;;;0.73;;
52396;SDS011;38322;53.108;6.308;2023-12-22T14:02:21;8.50;;;1.13;;
52396;SDS011;38322;53.108;6.308;2023-12-22T14:04:50;3.80;;;1.00;;
52396;SDS011;38322;53.108;6.308;2023-12-22T14:07:16;8.80;;;1.23;;
52396;SDS011;38322;53.108;6.308;2023-12-22T14:09:42;8.48;;;0.82;;
52396;SDS011;38322;53.108;6.308;2023-12-22T14:12:08;9.52;;;0.77;;
52396;SDS011;38322;53.108;6.308;2023-12-22T14:14:34;3.83;;;0.55;;
52396;SDS011;38322;53.108;6.308;2023-12-22T14:17:00;5.65;;;0.93;;
52396;SDS011;38322;53.108;6.308;2023-12-22T14:19:25;5.35;;;1.00;;
52396;SDS011;38322;53.108;6.308;2023-12-22T14:21:51;5.35;;;1.02;;
52396;SDS011;38322;53.108;6.308;2023-12-22T14:24:17;7.90;;;0.60;;
52396;SDS011;38322;53.108;6.308;2023-12-22T14:26:56;4.88;;;0.32;;
52396;SDS011;38322;53.108;6.308;2023-12-22T14:29:22;13.23;;;2.95;;
52396;SDS011;38322;53.108;6.308;2023-12-22T14:31:51;7.10;;;0.90;;
52396;SDS011;38322;53.108;6.308;2023-12-22T14:34:19;8.68;;;0.50;;
52396;SDS011;38322;53.108;6.308;2023-12-22T14:36:45;15.32;;;2.58;;
52396;SDS011;38322;53.108;6.308;2023-12-22T14:39:11;3.10;;;0.45;;
52396;SDS011;38322;53.108;6.308;2023-12-22T14:41:41;6.38;;;0.95;;
52396;SDS011;38322;53.108;6.308;2023-12-22T14:44:08;7.70;;;0.70;;
52396;SDS011;38322;53.108;6.308;2023-12-22T14:46:37;6.13;;;1.10;;
52396;SDS011;38322;53.108;6.308;2023-12-22T14:49:05;7.05;;;0.77;;
52396;SDS011;38322;53.108;6.308;2023-12-22T14:51:38;5.25;;;0.98;;
52396;SDS011;38322;53.108;6.308;2023-12-22T14:54:05;10.00;;;0.93;;
52396;SDS011;38322;53.108;6.308;2023-12-22T14:56:31;4.30;;;1.45;;
52396;SDS011;38322;53.108;6.308;2023-12-22T14:58:58;7.50;;;0.60;;
52396;SDS011;38322;53.108;6.308;2023-12-22T15:01:24;6.95;;;0.82;;
52396;SDS011;38322;53.108;6.308;2023-12-22T15:03:50;7.28;;;0.60;;
52396;SDS011;38322;53.108;6.308;2023-12-22T15:06:16;26.42;;;2.70;;
52396;SDS011;38322;53.108;6.308;2023-12-22T15:08:42;8.65;;;2.60;;
52396;SDS011;38322;53.108;6.308;2023-12-22T15:11:07;10.45;;;2.15;;
52396;SDS011;38322;53.108;6.308;2023-12-22T15:13:34;6.72;;;1.48;;
52396;SDS011;38322;53.108;6.308;2023-12-22T15:16:06;7.18;;;1.75;;
52396;SDS011;38322;53.108;6.308;2023-12-22T15:18:32;13.52;;;1.50;;
52396;SDS011;38322;53.108;6.308;2023-12-22T15:20:58;7.32;;;1.20;;
52396;SDS011;38322;53.108;6.308;2023-12-22T15:23:24;13.93;;;2.97;;
52396;SDS011;38322;53.108;6.308;2023-12-22T15:25:51;14.45;;;2.10;;
52396;SDS011;38322;53.108;6.308;2023-12-22T15:28:17;9.55;;;1.20;;
52396;SDS011;38322;53.108;6.308;2023-12-22T15:30:43;6.97;;;1.25;;
52396;SDS011;38322;53.108;6.308;2023-12-22T15:33:08;6.03;;;1.73;;
52396;SDS011;38322;53.108;6.308;2023-12-22T15:35:34;5.85;;;0.73;;
52396;SDS011;38322;53.108;6.308;2023-12-22T15:38:00;5.18;;;1.08;;
52396;SDS011;38322;53.108;6.308;2023-12-22T15:40:26;6.45;;;1.10;;
52396;SDS011;38322;53.108;6.308;2023-12-22T15:42:52;7.95;;;0.95;;
52396;SDS011;38322;53.108;6.308;2023-12-22T15:45:18;12.13;;;1.40;;
52396;SDS011;38322;53.108;6.308;2023-12-22T15:47:44;5.10;;;0.70;;
52396;SDS011;38322;53.108;6.308;2023-12-22T15:50:10;11.63;;;1.38;;
52396;SDS011;38322;53.108;6.308;2023-12-22T15:52:36;4.85;;;1.27;;
52396;SDS011;38322;53.108;6.308;2023-12-22T15:55:02;9.15;;;1.00;;
52396;SDS011;38322;53.108;6.308;2023-12-22T15:57:28;9.65;;;1.63;;
52396;SDS011;38322;53.108;6.308;2023-12-22T15:59:54;11.65;;;2.05;;
52396;SDS011;38322;53.108;6.308;2023-12-22T16:02:20;11.50;;;1.17;;
52396;SDS011;38322;53.108;6.308;2023-12-22T16:04:46;11.07;;;2.42;;
52396;SDS011;38322;53.108;6.308;2023-12-22T16:07:12;8.07;;;1.77;;
52396;SDS011;38322;53.108;6.308;2023-12-22T16:09:38;8.02;;;0.95;;
52396;SDS011;38322;53.108;6.308;2023-12-22T16:12:04;12.98;;;2.60;;
52396;SDS011;38322;53.108;6.308;2023-12-22T16:14:34;11.15;;;2.40;;
52396;SDS011;38322;53.108;6.308;2023-12-22T16:17:00;17.35;;;2.67;;
52396;SDS011;38322;53.108;6.308;2023-12-22T16:19:26;13.13;;;1.80;;
52396;SDS011;38322;53.108;6.308;2023-12-22T16:21:52;9.10;;;1.50;;
52396;SDS011;38322;53.108;6.308;2023-12-22T16:24:18;10.75;;;1.42;;
52396;SDS011;38322;53.108;6.308;2023-12-22T16:26:45;11.65;;;1.63;;
52396;SDS011;38322;53.108;6.308;2023-12-22T16:29:11;11.27;;;0.88;;
52396;SDS011;38322;53.108;6.308;2023-12-22T16:31:40;9.88;;;1.55;;
52396;SDS011;38322;53.108;6.308;2023-12-22T16:34:06;8.77;;;2.03;;
52396;SDS011;38322;53.108;6.308;2023-12-22T16:36:32;16.45;;;3.67;;
52396;SDS011;38322;53.108;6.308;2023-12-22T16:38:58;11.77;;;2.08;;
52396;SDS011;38322;53.108;6.308;2023-12-22T16:41:24;12.07;;;1.67;;
52396;SDS011;38322;53.108;6.308;2023-12-22T16:43:50;10.55;;;1.38;;
52396;SDS011;38322;53.108;6.308;2023-12-22T16:46:18;8.55;;;1.63;;
52396;SDS011;38322;53.108;6.308;2023-12-22T16:48:45;14.02;;;1.63;;
52396;SDS011;38322;53.108;6.308;2023-12-22T16:51:11;8.38;;;1.10;;
52396;SDS011;38322;53.108;6.308;2023-12-22T16:53:38;9.45;;;1.25;;
52396;SDS011;38322;53.108;6.308;2023-12-22T16:56:04;7.85;;;1.35;;
52396;SDS011;38322;53.108;6.308;2023-12-22T16:58:30;10.30;;;1.25;;
52396;SDS011;38322;53.108;6.308;2023-12-22T17:00:56;10.50;;;1.25;;
52396;SDS011;38322;53.108;6.308;2023-12-22T17:03:22;14.98;;;2.17;;
52396;SDS011;38322;53.108;6.308;2023-12-22T17:05:48;6.53;;;1.77;;
52396;SDS011;38322;53.108;6.308;2023-12-22T17:08:14;17.33;;;1.95;;
52396;SDS011;38322;53.108;6.308;2023-12-22T17:10:41;10.38;;;1.85;;
52396;SDS011;38322;53.108;6.308;2023-12-22T17:13:08;10.90;;;1.25;;
52396;SDS011;38322;53.108;6.308;2023-12-22T17:15:35;8.82;;;1.83;;
52396;SDS011;38322;53.108;6.308;2023-12-22T17:18:01;8.63;;;1.33;;
52396;SDS011;38322;53.108;6.308;2023-12-22T17:20:30;6.10;;;1.63;;
52396;SDS011;38322;53.108;6.308;2023-12-22T17:22:56;11.73;;;2.53;;
52396;SDS011;38322;53.108;6.308;2023-12-22T17:25:23;12.63;;;2.40;;
52396;SDS011;38322;53.108;6.308;2023-12-22T17:27:48;14.02;;;2.22;;
52396;SDS011;38322;53.108;6.308;2023-12-22T17:30:14;8.63;;;2.55;;
52396;SDS011;38322;53.108;6.308;2023-12-22T17:32:42;10.02;;;2.30;;
52396;SDS011;38322;53.108;6.308;2023-12-22T17:35:08;9.98;;;1.55;;
52396;SDS011;38322;53.108;6.308;2023-12-22T17:37:34;9.57;;;1.50;;
52396;SDS011;38322;53.108;6.308;2023-12-22T17:40:00;11.48;;;1.10;;
52396;SDS011;38322;53.108;6.308;2023-12-22T17:42:26;10.95;;;1.20;;
52396;SDS011;38322;53.108;6.308;2023-12-22T17:44:52;9.70;;;1.20;;
52396;SDS011;38322;53.108;6.308;2023-12-22T17:47:17;7.78;;;1.42;;
52396;SDS011;38322;53.108;6.308;2023-12-22T17:49:43;11.20;;;1.95;;
52396;SDS011;38322;53.108;6.308;2023-12-22T17:52:09;11.15;;;2.25;;
52396;SDS011;38322;53.108;6.308;2023-12-22T17:54:35;11.50;;;1.33;;
52396;SDS011;38322;53.108;6.308;2023-12-22T17:57:01;10.10;;;2.42;;
52396;SDS011;38322;53.108;6.308;2023-12-22T17:59:28;18.95;;;1.50;;
52396;SDS011;38322;53.108;6.308;2023-12-22T18:01:54;9.65;;;1.67;;
52396;SDS011;38322;53.108;6.308;2023-12-22T18:04:22;12.10;;;1.67;;
52396;SDS011;38322;53.108;6.308;2023-12-22T18:06:48;15.02;;;2.22;;
52396;SDS011;38322;53.108;6.308;2023-12-22T18:09:14;11.60;;;0.98;;
52396;SDS011;38322;53.108;6.308;2023-12-22T18:11:41;12.45;;;0.75;;
52396;SDS011;38322;53.108;6.308;2023-12-22T18:14:07;3.95;;;0.55;;
52396;SDS011;38322;53.108;6.308;2023-12-22T18:16:40;6.80;;;1.08;;
52396;SDS011;38322;53.108;6.308;2023-12-22T18:19:07;10.27;;;3.25;;
52396;SDS011;38322;53.108;6.308;2023-12-22T18:21:33;8.82;;;1.05;;
52396;SDS011;38322;53.108;6.308;2023-12-22T18:24:00;14.05;;;2.63;;
52396;SDS011;38322;53.108;6.308;2023-12-22T18:26:26;14.90;;;2.30;;
52396;SDS011;38322;53.108;6.308;2023-12-22T18:28:52;10.48;;;1.10;;
52396;SDS011;38322;53.108;6.308;2023-12-22T18:31:18;9.52;;;1.23;;
52396;SDS011;38322;53.108;6.308;2023-12-22T18:33:44;15.98;;;2.35;;
52396;SDS011;38322;53.108;6.308;2023-12-22T18:36:10;13.07;;;3.25;;
52396;SDS011;38322;53.108;6.308;2023-12-22T18:38:36;10.02;;;1.38;;
52396;SDS011;38322;53.108;6.308;2023-12-22T18:41:02;6.68;;;1.88;;
52396;SDS011;38322;53.108;6.308;2023-12-22T18:43:28;13.43;;;2.38;;
52396;SDS011;38322;53.108;6.308;2023-12-22T18:45:54;6.60;;;1.17;;
52396;SDS011;38322;53.108;6.308;2023-12-22T18:48:20;15.18;;;2.60;;
52396;SDS011;38322;53.108;6.308;2023-12-22T18:50:46;8.48;;;0.85;;
52396;SDS011;38322;53.108;6.308;2023-12-22T18:53:12;10.45;;;0.80;;
52396;SDS011;38322;53.108;6.308;2023-12-22T18:55:38;9.35;;;1.77;;
52396;SDS011;38322;53.108;6.308;2023-12-22T18:58:04;6.03;;;0.98;;
52396;SDS011;38322;53.108;6.308;2023-12-22T19:00:30;10.95;;;3.20;;
52396;SDS011;38322;53.108;6.308;2023-12-22T19:02:56;5.35;;;1.02;;
52396;SDS011;38322;53.108;6.308;2023-12-22T19:05:23;12.85;;;1.15;;
52396;SDS011;38322;53.108;6.308;2023-12-22T19:07:49;11.63;;;1.80;;
52396;SDS011;38322;53.108;6.308;2023-12-22T19:10:15;6.88;;;1.05;;
52396;SDS011;38322;53.108;6.308;2023-12-22T19:12:41;15.93;;;2.17;;
52396;SDS011;38322;53.108;6.308;2023-12-22T19:15:10;12.02;;;1.60;;
52396;SDS011;38322;53.108;6.308;2023-12-22T19:17:36;7.75;;;1.30;;
52396;SDS011;38322;53.108;6.308;2023-12-22T19:20:05;9.77;;;1.55;;
52396;SDS011;38322;53.108;6.308;2023-12-22T19:22:31;13.02;;;2.00;;
52396;SDS011;38322;53.108;6.308;2023-12-22T19:24:58;14.43;;;3.00;;
52396;SDS011;38322;53.108;6.308;2023-12-22T19:27:24;9.40;;;1.25;;
52396;SDS011;38322;53.108;6.308;2023-12-22T19:29:50;10.98;;;1.17;;
52396;SDS011;38322;53.108;6.308;2023-12-22T19:32:17;18.55;;;1.92;;
52396;SDS011;38322;53.108;6.308;2023-12-22T19:34:43;5.80;;;0.90;;
52396;SDS011;38322;53.108;6.308;2023-12-22T19:37:10;7.97;;;1.20;;
52396;SDS011;38322;53.108;6.308;2023-12-22T19:39:36;24.27;;;2.40;;
52396;SDS011;38322;53.108;6.308;2023-12-22T19:42:02;7.00;;;1.27;;
52396;SDS011;38322;53.108;6.308;2023-12-22T19:44:28;18.10;;;3.05;;
52396;SDS011;38322;53.108;6.308;2023-12-22T19:46:53;13.13;;;1.65;;
52396;SDS011;38322;53.108;6.308;2023-12-22T19:49:19;13.75;;;3.50;;
52396;SDS011;38322;53.108;6.308;2023-12-22T19:51:48;5.45;;;1.00;;
52396;SDS011;38322;53.108;6.308;2023-12-22T19:54:14;8.00;;;0.98;;
52396;SDS011;38322;53.108;6.308;2023-12-22T19:56:39;6.70;;;1.75;;
52396;SDS011;38322;53.108;6.308;2023-12-22T19:59:05;11.18;;;2.63;;
52396;SDS011;38322;53.108;6.308;2023-12-22T20:01:32;12.98;;;1.27;;
52396;SDS011;38322;53.108;6.308;2023-12-22T20:03:58;10.00;;;1.50;;
52396;SDS011;38322;53.108;6.308;2023-12-22T20:06:26;8.75;;;1.65;;
52396;SDS011;38322;53.108;6.308;2023-12-22T20:08:52;5.68;;;1.50;;
52396;SDS011;38322;53.108;6.308;2023-12-22T20:11:18;14.00;;;2.55;;
52396;SDS011;38322;53.108;6.308;2023-12-22T20:13:44;6.68;;;1.15;;
52396;SDS011;38322;53.108;6.308;2023-12-22T20:16:10;7.80;;;1.23;;
52396;SDS011;38322;53.108;6.308;2023-12-22T20:18:38;1.90;;;0.75;;
52396;SDS011;38322;53.108;6.308;2023-12-22T20:21:05;8.82;;;0.70;;
52396;SDS011;38322;53.108;6.308;2023-12-22T20:23:31;3.97;;;0.52;;
52396;SDS011;38322;53.108;6.308;2023-12-22T20:25:57;8.25;;;0.60;;
52396;SDS011;38322;53.108;6.308;2023-12-22T20:28:23;4.07;;;0.52;;
52396;SDS011;38322;53.108;6.308;2023-12-22T20:30:50;8.02;;;0.70;;
52396;SDS011;38322;53.108;6.308;2023-12-22T20:33:16;4.45;;;0.50;;
52396;SDS011;38322;53.108;6.308;2023-12-22T20:35:42;17.05;;;1.85;;
52396;SDS011;38322;53.108;6.308;2023-12-22T20:38:08;9.38;;;1.27;;
52396;SDS011;38322;53.108;6.308;2023-12-22T20:40:34;4.60;;;0.55;;
52396;SDS011;38322;53.108;6.308;2023-12-22T20:43:00;6.20;;;0.40;;
52396;SDS011;38322;53.108;6.308;2023-12-22T20:45:26;3.83;;;0.40;;
52396;SDS011;38322;53.108;6.308;2023-12-22T20:47:51;11.10;;;1.00;;
52396;SDS011;38322;53.108;6.308;2023-12-22T20:50:17;3.92;;;1.50;;
52396;SDS011;38322;53.108;6.308;2023-12-22T20:52:43;9.05;;;1.48;;